METAR Data
IDs: Format: Raw Decoded Include TAF

Data at: 0011 UTC 26 Oct 2021

PFKT 252356Z AUTO 28015KT 10SM OVC017 M03/M06 A2936 RMK AO2 SLP943 60000 T10331061 11022 21050 53008 FZRANO
PFKT 252256Z AUTO 29020KT 10SM OVC017 M03/M06 A2935 RMK AO2 SLP938 T10281056 FZRANO
PFKT 252156Z AUTO 28020KT 10SM BKN019 OVC034 M03/M06 A2935 RMK AO2 PK WND 27026/2123 SNE04 SLP938 P0000 T10281056 FZRANO
PFKT 252135Z AUTO 28021KT 10SM BKN017 OVC046 M03/M05 A2934 RMK AO2 PK WND 27026/2123 SNE04 P0000 FZRANO
PFKT 252056Z AUTO 28018KT 7SM -SN FEW018 SCT046 OVC060 M03/M05 A2934 RMK AO2 PK WND 27026/2019 SNE27B43 SLP935 P0000 60000 T10281050 53009 FZRANO
PFKT 252013Z AUTO 28020G24KT 9SM -SN FEW021 BKN049 OVC060 M03/M05 A2933 RMK AO2 P0000 FZRANO
PFKT 251956Z AUTO 27022KT 9SM -SN SCT019 BKN024 OVC060 M03/M04 A2932 RMK AO2 SNE05B43 SLP930 P0000 T10281044 FZRANO
PFKT 251856Z AUTO 28017KT 10SM -SN BKN019 BKN023 OVC060 M03/M04 A2931 RMK AO2 SNB25E37B53 SLP927 P0000 T10281044 FZRANO
PFKT 251821Z AUTO 28015KT 10SM FEW017 BKN025 BKN033 M03/M05 A2931 RMK AO2 FZRANO
PFKT 251756Z AUTO 31007KT 10SM FEW017 SCT034 SCT065 M05/M07 A2931 RMK AO2 SLP925 60000 T10501067 11017 21067 52003 FZRANO
PFKT 251656Z AUTO 32007KT 10SM BKN034 M06/M07 A2931 RMK AO2 SLP925 T10611072 FZRANO
PFKT 251556Z AUTO 32006KT 10SM FEW031 SCT043 SCT090 M05/M06 A2930 RMK AO2 SNE48 SLP922 P0000 T10501061 FZRANO
PFKT 251456Z AUTO 32008KT 9SM -SN OVC037 M03/M04 A2930 RMK AO2 SNB28 SLP922 P0000 60000 T10331044 53001 FZRANO
PFKT 251356Z AUTO 28017KT 10SM FEW027 OVC039 M02/M04 A2930 RMK AO2 UPE34SNB17E27 SLP922 P0000 T10221039 FZRANO
PFKT 251324Z AUTO 27019KT 8SM -SN FEW007 SCT013 OVC041 M02/M03 A2929 RMK AO2 UPE17SNB17 P0000 FZRANO
PFKT 251256Z AUTO 27019KT 5SM UP BR FEW010 BKN016 OVC040 M02/M03 A2930 RMK AO2 UPB41SNE1159B31E41 SLP921 P0000 T10171033 FZRANO
PFKT 251221Z AUTO 28015KT 10SM FEW015 SCT030 OVC038 M02/M03 A2930 RMK AO2 SNE1159 P0000 FZRANO
PFKT 251156Z AUTO 29015G23KT 9SM -SN SCT015 BKN028 OVC055 M02/M04 A2930 RMK AO2 SNB49 SLP923 P0000 60000 T10171039 11006 21028 58003 FZRANO
PFKT 251149Z AUTO 28019G23KT 9SM -SN SCT015 BKN026 OVC120 M01/M03 A2930 RMK AO2 SNB49 P0000 FZRANO
PFKT 251126Z AUTO 28016KT 10SM FEW015 SCT024 BKN037 M02/M04 A2930 RMK AO2 FZRANO
PFKT 251056Z AUTO 28019G22KT 10SM OVC021 M02/M04 A2931 RMK AO2 UPB03E05SNE03B09E20 SLP924 P0000 T10171039 FZRANO
PFKT 251039Z AUTO 28019KT 10SM BKN016 OVC021 M02/M03 A2931 RMK AO2 UPB03E05SNE03B09E20 P0000 FZRANO
PFKT 251018Z AUTO 28018KT 9SM -SN BKN014 BKN021 OVC060 M02/M03 A2931 RMK AO2 UPB03E05SNE03B09 P0000 FZRANO
PFKT 250956Z AUTO 28016KT 10SM -SN FEW008 BKN060 M02/M03 A2931 RMK AO2 PK WND 27027/0924 UPB22E47SNB10E22B24E37B54 SLP927 P0000 T10171028 FZRANO
PFKT 250951Z AUTO 28017KT 10SM FEW008 SCT013 BKN120 M02/M03 A2931 RMK AO2 PK WND 27027/0924 UPB22E47SNB10E22B24E37 P0000 FZRANO
PFKT 250930Z AUTO 27020G27KT 6SM -SN BR BKN008 BKN060 OVC110 M01/M02 A2931 RMK AO2 PK WND 27027/0924 UPB22E24SNB10E22B24 CIG 005V012 P0000 FZRANO
PFKT 250923Z AUTO 27021KT 5SM UP BR SCT008 BKN050 OVC110 M01/M03 A2931 RMK AO2 PK WND 27026/0923 UPB22SNB10E22 P0000 FZRANO
PFKT 250856Z AUTO 26021KT 10SM FEW010 BKN065 OVC110 M01/M03 A2930 RMK AO2 PK WND 27028/0844 SNE03 SLP923 P0000 60000 T10111028 400001028 58002 FZRANO
PFKT 250756Z AUTO 27020G26KT 10SM -SN FEW011 BKN045 OVC050 M01/M02 A2931 RMK AO2 PK WND 27026/0756 SNB52 SLP924 P0000 T10111022 FZRANO
PFKT 250656Z AUTO 31008KT 10SM SCT038 OVC046 M02/M03 A2931 RMK AO2 SNB06E33 SLP926 P0000 T10171033 FZRANO
PFKT 250556Z AUTO 32006KT 10SM SCT035 OVC048 M03/M04 A2931 RMK AO2 SNE02 SLP926 P0000 60000 T10281039 11006 21028 58004 FZRANO
PFKT 250456Z AUTO 28007KT 9SM -SN FEW027 BKN043 OVC100 M03/M04 A2931 RMK AO2 SNB30 SLP927 P0000 T10281039 FZRANO
PFKT 250356Z AUTO 29007KT 10SM BKN070 OVC100 M02/M03 A2932 RMK AO2 UPB33E35SNE33B35E45 SLP929 P0000 T10171028 FZRANO
PFKT 250335Z AUTO 28008KT 9SM -SN FEW020 OVC075 M02/M02 A2932 RMK AO2 UPB33E35SNE33B35 P0000 FZRANO
PFKT 250323Z AUTO 29008KT 7SM -SN SCT018 BKN027 OVC075 M02/M02 A2932 RMK AO2 P0000 FZRANO
PFKT 250256Z AUTO 30005KT 2 1/2SM -SN BR SCT020 OVC027 M02/M02 A2932 RMK AO2 VIS 1 1/4V5 UPB10E26SNE01B26 SLP929 P0000 60000 T10171022 55001 FZRANO
PFKT 250236Z AUTO 30003KT 2 1/2SM -SN BR FEW010 BKN025 OVC030 M01/M03 A2932 RMK AO2 VIS 2V3 UPB10E26SNE01B26 P0000 FZRANO
PFKT 250156Z AUTO 30003KT 9SM -SN SCT017 OVC026 M01/M02 A2932 RMK AO2 UPB01E22SNE01B22 SLP929 P0000 T10111022 FZRANO
PFKT 250056Z AUTO 29007KT 3SM -SN BR FEW011 OVC027 M01/M02 A2933 RMK AO2 UPB2357E39SNE2357B39 SLP931 P0000 T10061022 FZRANO
PFKT 250051Z AUTO 28008KT 3SM -SN BR FEW022 BKN029 OVC034 M01/M02 A2932 RMK AO2 UPB2357E39SNE2357B39 P0000 FZRANO
PFKT 250009Z AUTO 28011KT 10SM UP FEW014 BKN030 OVC035 M01/M02 A2933 RMK AO2 UPB2357SNE2357 P0000 FZRANO
PFKT 242356Z AUTO 29011KT 7SM -SN FEW014 BKN022 OVC032 M01/M02 A2933 RMK AO2 SLP933 P0000 60000 T10061017 10000 21022 58005 FZRANO
PFKT 242333Z AUTO 28012KT 3SM -SN BR FEW004 SCT014 OVC024 M01/M01 A2933 RMK AO2 P0000 FZRANO
PFKT 242323Z AUTO 28012KT 3SM -SN BR FEW004 BKN014 OVC024 M01/M01 A2933 RMK AO2 P0000 FZRANO
PFKT 242256Z AUTO 28010KT 1 1/4SM -SN BR SCT004 OVC014 M01/M01 A2934 RMK AO2 UPE12SNB12 SLP935 P0000 T10061011 FZRANO
PFKT 242254Z AUTO 28008KT 1 1/4SM -SN BR SCT004 BKN008 OVC014 M01/M01 A2934 RMK AO2 UPE12SNB12 P0000 FZRANO
PFKT 242246Z AUTO 28009KT 1SM -SN BR FEW008 OVC014 M01/M02 A2934 RMK AO2 UPE12SNB12 P0000 FZRANO
PFKT 242225Z AUTO 27006KT 1 1/4SM -SN BR FEW009 OVC012 M01/M02 A2934 RMK AO2 UPE12SNB12 P0000 FZRANO
PFKT 242217Z AUTO 27005KT 1SM -SN BR BKN012 OVC017 M01/M02 A2934 RMK AO2 UPE12SNB12 P0000 FZRANO
PFKT 242202Z AUTO 00000KT 1 3/4SM UP BR OVC015 00/M01 A2934 RMK AO2 P0000 FZRANO
PFKT 242156Z AUTO 00000KT 3SM UP BR FEW010 OVC017 00/M01 A2934 RMK AO2 SLP937 P0000 T00001011 FZRANO
PFKT 242153Z AUTO 00000KT 3SM UP BR SCT012 BKN017 OVC026 00/M01 A2934 RMK AO2 P0000 FZRANO
PFKT 242133Z AUTO 00000KT 2 1/2SM UP BR BKN013 OVC026 00/M01 A2934 RMK AO2 VIS 1 1/2V4 P0000 FZRANO
PFKT 242056Z AUTO 00000KT 7SM UP FEW011 OVC024 M01/M02 A2935 RMK AO2 UPB19SNE19 SLP938 P0000 60000 T10061017 56005 FZRANO
PFKT 242020Z AUTO 00000KT 9SM UP SCT019 BKN024 OVC037 M01/M02 A2935 RMK AO2 UPB19SNE19 P0000 FZRANO
PFKT 241956Z AUTO 28003KT 7SM -SN SCT019 OVC035 M01/M02 A2935 RMK AO2 UPE12SNB12 SLP939 P0000 T10111022 FZRANO
PFKT 241856Z AUTO 33003KT 10SM UP OVC023 M02/M02 A2936 RMK AO2 UPB31 SLP942 P0000 T10171022 FZRANO
PFKT 241756Z AUTO 30003KT 10SM OVC023 M02/M03 A2936 RMK AO2 SLP943 60000 T10221028 11017 21028 58009 FZRANO
PFKT 241656Z AUTO 32005KT 10SM FEW013 BKN023 OVC028 M02/M03 A2938 RMK AO2 SNE50 SLP949 P0000 T10221028 FZRANO
PFKT 241632Z AUTO 31004KT 9SM -SN BKN015 BKN022 OVC032 M02/M03 A2939 RMK AO2 P0000 FZRANO
PFKT 241619Z AUTO 31004KT 9SM -SN FEW013 OVC030 M03/M03 A2939 RMK AO2 P0000 FZRANO
PFKT 241556Z AUTO 34004KT 9SM -SN FEW009 OVC027 M02/M03 A2939 RMK AO2 UPE02SNB02 SLP954 P0000 T10221028 FZRANO
PFKT 241531Z AUTO 31007KT 9SM -SN SCT009 BKN015 OVC027 M02/M03 A2939 RMK AO2 UPE02SNB02 P0000 FZRANO
PFKT 241516Z AUTO 29005KT 9SM -SN FEW018 BKN025 BKN029 M02/M03 A2939 RMK AO2 UPE02SNB02 P0000 FZRANO
PFKT 241456Z AUTO 31005KT 10SM UP FEW017 SCT025 BKN090 M02/M03 A2939 RMK AO2 UPB24SNE24 SLP952 P0000 60000 T10221028 58004 FZRANO
PFKT 241449Z AUTO 32005KT 10SM UP FEW019 BKN070 OVC090 M02/M03 A2939 RMK AO2 UPB24SNE24 P0000 FZRANO
PFKT 241419Z AUTO 31006KT 6SM -SN BR BKN027 OVC035 M02/M02 A2939 RMK AO2 P0000 FZRANO
PFKT 241356Z AUTO 29006KT 4SM -SN BR BKN037 OVC050 M02/M02 A2940 RMK AO2 UPE10SNB10 SLP957 P0000 T10171022 FZRANO
PFKT 241256Z AUTO 29005KT 6SM UP BR OVC039 M02/M02 A2940 RMK AO2 UPB32SNE32 SLP956 P0000 T10171022 FZRANO